Time;durP1;ratioP1;P1;durP2;ratioP2;P2;SDS_P1;SDS_P2;PMS_P1;PMS_P2;Temp;Humidity;BMP_temperature;BMP_pressure;BME280_temperature;BME280_humidity;BME280_pressure;Samples;Min_cycle;Max_cycle;Signal;HPM_P1;HPM_P2
2024/02/24 00:00:48;;;;;;;;;;;14.80;65.70;;;;;;5032287;28;20319;-76
2024/02/24 00:03:14;;;;;;;;;;;15.10;65.50;;;;;;5032350;28;19928;-75
2024/02/24 00:05:40;;;;;;;;;;;14.70;65.60;;;;;;5032502;28;20008;-76
2024/02/24 00:08:07;;;;;;;;;;;15.00;65.90;;;;;;5032335;28;20364;-76
2024/02/24 00:10:33;;;;;;;;;;;14.80;65.60;;;;;;5032361;28;19913;-75
2024/02/24 00:13:00;;;;;;;;;;;14.80;65.80;;;;;;5032363;28;19909;-76
2024/02/24 00:15:26;;;;;;;;;;;14.80;65.60;;;;;;5032433;28;19916;-75
2024/02/24 00:17:52;;;;;;;;;;;14.70;65.70;;;;;;5032012;28;19913;-75
2024/02/24 00:20:18;;;;;;;;;;;14.80;65.60;;;;;;5032283;28;19998;-75
2024/02/24 00:22:44;;;;;;;;;;;14.70;65.10;;;;;;5032282;28;19917;-76
2024/02/24 00:25:10;;;;;;;;;;;14.70;65.70;;;;;;5032273;28;20248;-75
2024/02/24 00:27:36;;;;;;;;;;;14.80;65.70;;;;;;5032208;28;20268;-76
2024/02/24 00:30:02;;;;;;;;;;;14.80;65.60;;;;;;5032038;28;20379;-76
2024/02/24 00:32:28;;;;;;;;;;;14.80;65.00;;;;;;5032654;28;19909;-75
2024/02/24 00:34:54;;;;;;;;;;;14.80;65.80;;;;;;5032703;28;20007;-75
2024/02/24 00:37:20;;;;;;;;;;;14.80;65.70;;;;;;5035527;28;19933;-75
2024/02/24 00:39:46;;;;;;;;;;;16.50;66.70;;;;;;5035445;28;20355;-75
2024/02/24 00:42:12;;;;;;;;;;;14.70;65.40;;;;;;5035379;28;19996;-75
2024/02/24 00:44:38;;;;;;;;;;;14.70;65.60;;;;;;5035460;28;19960;-76
2024/02/24 00:47:03;;;;;;;;;;;14.70;65.60;;;;;;5035387;28;19909;-75
2024/02/24 00:49:32;;;;;;;;;;;14.70;65.30;;;;;;5035380;28;19909;-75
2024/02/24 00:51:57;;;;;;;;;;;14.70;61.70;;;;;;5035370;28;20357;-75
2024/02/24 00:54:23;;;;;;;;;;;14.80;65.70;;;;;;5035177;28;19909;-75
2024/02/24 00:56:49;;;;;;;;;;;14.70;65.50;;;;;;5035492;28;19960;-75
2024/02/24 00:59:15;;;;;;;;;;;14.70;65.50;;;;;;5035048;28;20015;-75
2024/02/24 01:01:41;;;;;;;;;;;14.70;65.10;;;;;;5035557;28;19910;-76
2024/02/24 01:04:07;;;;;;;;;;;14.70;65.20;;;;;;5034937;28;19927;-75
2024/02/24 01:06:33;;;;;;;;;;;14.60;65.70;;;;;;5035284;28;20347;-75
2024/02/24 01:08:59;;;;;;;;;;;14.60;66.20;;;;;;5034938;28;19945;-75
2024/02/24 01:11:25;;;;;;;;;;;14.70;65.70;;;;;;5035252;28;19909;-75
2024/02/24 01:13:51;;;;;;;;;;;14.70;65.50;;;;;;5035228;28;19909;-75
2024/02/24 01:16:16;;;;;;;;;;;14.60;65.30;;;;;;5034881;28;19932;-75
2024/02/24 01:18:42;;;;;;;;;;;14.70;65.40;;;;;;5034590;28;19971;-76
2024/02/24 01:21:07;;;;;;;;;;;14.70;65.40;;;;;;5035112;28;19975;-75
2024/02/24 01:23:33;;;;;;;;;;;14.70;65.50;;;;;;5034640;28;19996;-76
2024/02/24 01:25:59;;;;;;;;;;;14.70;65.70;;;;;;5034975;28;19917;-75
2024/02/24 01:28:25;;;;;;;;;;;14.80;65.70;;;;;;5034894;28;19956;-75
2024/02/24 01:30:51;;;;;;;;;;;14.90;65.60;;;;;;5034523;28;19913;-75
2024/02/24 01:33:17;;;;;;;;;;;14.60;65.40;;;;;;5034776;28;19913;-76
2024/02/24 01:35:43;;;;;;;;;;;14.70;65.60;;;;;;5034703;28;19982;-75
2024/02/24 01:38:08;;;;;;;;;;;14.70;65.30;;;;;;5034519;28;19917;-75
2024/02/24 01:40:34;;;;;;;;;;;14.70;65.80;;;;;;5034340;28;20387;-75
2024/02/24 01:42:59;;;;;;;;;;;14.60;65.70;;;;;;5034339;28;20376;-76
2024/02/24 01:45:25;;;;;;;;;;;14.60;66.20;;;;;;5034331;28;20360;-76
2024/02/24 01:47:52;;;;;;;;;;;14.60;66.10;;;;;;5033313;28;19916;-76
2024/02/24 01:50:19;;;;;;;;;;;14.60;66.00;;;;;;5034295;28;19916;-75
2024/02/24 01:52:48;;;;;;;;;;;14.60;66.10;;;;;;5034374;28;19909;-76
2024/02/24 01:55:16;;;;;;;;;;;14.60;66.30;;;;;;5034488;28;19963;-75
2024/02/24 01:57:43;;;;;;;;;;;14.60;66.40;;;;;;5034305;28;20257;-76
2024/02/24 02:00:09;;;;;;;;;;;14.50;66.20;;;;;;5033907;28;20380;-75
2024/02/24 02:02:39;;;;;;;;;;;14.60;65.90;;;;;;5033670;28;20372;-76
2024/02/24 02:05:05;;;;;;;;;;;14.60;61.70;;;;;;5034247;28;19944;-75
2024/02/24 02:07:31;;;;;;;;;;;14.50;66.20;;;;;;5034268;28;19909;-75
2024/02/24 02:09:58;;;;;;;;;;;14.50;66.20;;;;;;5034077;28;20004;-75
2024/02/24 02:12:24;;;;;;;;;;;14.60;66.20;;;;;;5034024;28;19995;-75
2024/02/24 02:14:51;;;;;;;;;;;14.50;66.30;;;;;;5033695;28;19909;-75
2024/02/24 02:17:17;;;;;;;;;;;14.60;66.00;;;;;;5034055;28;20281;-75
2024/02/24 02:19:43;;;;;;;;;;;14.60;66.40;;;;;;5033770;28;19924;-76
2024/02/24 02:22:11;;;;;;;;;;;14.50;66.40;;;;;;5033919;28;19939;-75
2024/02/24 02:24:37;;;;;;;;;;;14.60;66.10;;;;;;5033430;28;19916;-75
2024/02/24 02:27:06;;;;;;;;;;;14.60;66.40;;;;;;5033549;28;19959;-75
2024/02/24 02:29:34;;;;;;;;;;;14.80;65.50;;;;;;5033573;28;19909;-75
2024/02/24 02:32:00;;;;;;;;;;;14.50;66.40;;;;;;5033488;28;20075;-75
2024/02/24 02:34:26;;;;;;;;;;;14.50;65.90;;;;;;5034160;28;19917;-75
2024/02/24 02:36:52;;;;;;;;;;;14.50;66.20;;;;;;5033256;28;19913;-76
2024/02/24 02:39:18;;;;;;;;;;;14.50;66.10;;;;;;5033174;28;19924;-75
2024/02/24 02:41:44;;;;;;;;;;;14.50;66.00;;;;;;5033169;28;19915;-75
2024/02/24 02:44:10;;;;;;;;;;;14.50;65.10;;;;;;5033122;28;19956;-76
2024/02/24 02:46:36;;;;;;;;;;;14.50;66.20;;;;;;5033257;28;19909;-75
2024/02/24 02:49:01;;;;;;;;;;;14.50;66.10;;;;;;5033117;28;19917;-74
2024/02/24 02:51:27;;;;;;;;;;;14.50;66.10;;;;;;5033093;28;19913;-74
2024/02/24 02:53:52;;;;;;;;;;;14.50;65.90;;;;;;5032995;28;19920;-74
2024/02/24 02:56:20;;;;;;;;;;;14.40;66.10;;;;;;5033051;28;19909;-74
2024/02/24 02:58:46;;;;;;;;;;;14.50;66.00;;;;;;5032394;28;19917;-74
2024/02/24 03:01:12;;;;;;;;;;;14.60;66.10;;;;;;5032932;28;19996;-74
2024/02/24 03:03:37;;;;;;;;;;;14.50;65.40;;;;;;5033087;28;19921;-74
2024/02/24 03:06:03;;;;;;;;;;;14.40;65.80;;;;;;5015059;28;19909;-74
2024/02/24 03:08:32;;;;;;;;;;;14.50;66.00;;;;;;5032868;28;19909;-74
2024/02/24 03:10:58;;;;;;;;;;;14.40;65.80;;;;;;5032740;28;19999;-74
2024/02/24 03:13:24;;;;;;;;;;;14.40;65.70;;;;;;5032823;28;20000;-74
2024/02/24 03:15:49;;;;;;;;;;;14.50;66.00;;;;;;5032777;28;19909;-74
2024/02/24 03:18:15;;;;;;;;;;;14.40;66.00;;;;;;5032642;28;20400;-73
2024/02/24 03:20:40;;;;;;;;;;;14.30;66.30;;;;;;5032599;28;19917;-74
2024/02/24 03:23:06;;;;;;;;;;;14.40;65.80;;;;;;5032890;28;19916;-74
2024/02/24 03:25:32;;;;;;;;;;;14.40;66.50;;;;;;5032879;28;19913;-74
2024/02/24 03:27:58;;;;;;;;;;;14.40;66.10;;;;;;5032694;28;20253;-74
2024/02/24 03:30:24;;;;;;;;;;;14.40;66.00;;;;;;5032509;28;19977;-74
2024/02/24 03:32:51;;;;;;;;;;;14.40;65.90;;;;;;5033172;28;19916;-74
2024/02/24 03:35:17;;;;;;;;;;;14.40;65.80;;;;;;5032403;28;19971;-74
2024/02/24 03:37:43;;;;;;;;;;;14.30;65.80;;;;;;5032613;28;19917;-74
2024/02/24 03:40:09;;;;;;;;;;;14.30;66.00;;;;;;5032684;28;19920;-74
2024/02/24 03:42:35;;;;;;;;;;;14.40;64.30;;;;;;5032353;28;19909;-74
2024/02/24 03:45:02;;;;;;;;;;;14.40;66.00;;;;;;5032641;28;19964;-74
2024/02/24 03:47:28;;;;;;;;;;;14.40;65.80;;;;;;5032374;28;19916;-74
2024/02/24 03:49:54;;;;;;;;;;;14.30;66.20;;;;;;5032563;28;20294;-74
2024/02/24 03:52:19;;;;;;;;;;;14.30;65.90;;;;;;5032270;28;19910;-74
2024/02/24 03:54:45;;;;;;;;;;;14.40;66.00;;;;;;5032570;28;19917;-74
2024/02/24 03:57:11;;;;;;;;;;;14.40;65.80;;;;;;5032183;28;20379;-75
2024/02/24 03:59:37;;;;;;;;;;;14.20;65.90;;;;;;5032890;28;19925;-75
2024/02/24 04:02:03;;;;;;;;;;;14.30;65.40;;;;;;5032431;28;19919;-75
2024/02/24 04:04:29;;;;;;;;;;;14.30;65.70;;;;;;5032111;28;20303;-75
2024/02/24 04:06:55;;;;;;;;;;;14.30;66.20;;;;;;5032407;28;20253;-75
2024/02/24 04:09:21;;;;;;;;;;;14.30;66.10;;;;;;5032392;28;20283;-76
2024/02/24 04:11:48;;;;;;;;;;;14.30;65.90;;;;;;5035761;28;20000;-75
2024/02/24 04:14:14;;;;;;;;;;;14.20;65.60;;;;;;5035954;28;19913;-75
2024/02/24 04:16:42;;;;;;;;;;;14.20;65.80;;;;;;5035514;28;20573;-76
2024/02/24 04:19:08;;;;;;;;;;;14.20;65.90;;;;;;5035841;28;19917;-76
2024/02/24 04:21:34;;;;;;;;;;;14.20;65.90;;;;;;5036163;28;19916;-76
2024/02/24 04:24:00;;;;;;;;;;;14.20;65.90;;;;;;5035788;28;20256;-75
2024/02/24 04:26:26;;;;;;;;;;;14.20;66.00;;;;;;5035994;28;19909;-76
2024/02/24 04:28:51;;;;;;;;;;;14.20;65.80;;;;;;5036426;28;19909;-75
2024/02/24 04:31:17;;;;;;;;;;;14.20;66.30;;;;;;5035698;28;20264;-75
2024/02/24 04:33:43;;;;;;;;;;;14.30;66.10;;;;;;5035942;28;19909;-75
2024/02/24 04:36:09;;;;;;;;;;;14.30;65.90;;;;;;5035888;28;19909;-76
2024/02/24 04:38:35;;;;;;;;;;;14.30;65.80;;;;;;5035517;28;19909;-75
2024/02/24 04:41:01;;;;;;;;;;;14.20;65.70;;;;;;5035871;28;19920;-75
2024/02/24 04:43:27;;;;;;;;;;;14.20;66.00;;;;;;5035760;28;19916;-76
2024/02/24 04:45:53;;;;;;;;;;;14.20;66.00;;;;;;5035723;28;20287;-75
2024/02/24 04:48:19;;;;;;;;;;;14.20;65.90;;;;;;5035581;28;19909;-76
2024/02/24 04:50:45;;;;;;;;;;;14.20;65.90;;;;;;5035711;28;19994;-76
2024/02/24 04:53:11;;;;;;;;;;;14.20;66.20;;;;;;5035470;28;19913;-76
2024/02/24 04:55:37;;;;;;;;;;;14.10;66.00;;;;;;5035214;28;20331;-76
2024/02/24 04:58:03;;;;;;;;;;;14.20;66.00;;;;;;5035923;28;19940;-76
2024/02/24 05:00:29;;;;;;;;;;;14.30;65.20;;;;;;5035371;28;19932;-75
2024/02/24 05:02:55;;;;;;;;;;;14.10;65.50;;;;;;5034717;28;19966;-76
2024/02/24 05:05:21;;;;;;;;;;;14.10;65.90;;;;;;5034190;28;19913;-76
2024/02/24 05:07:46;;;;;;;;;;;14.20;66.10;;;;;;5033877;28;20375;-76
2024/02/24 05:10:12;;;;;;;;;;;14.10;66.10;;;;;;5034171;28;19913;-76
2024/02/24 05:12:42;;;;;;;;;;;14.10;65.90;;;;;;5033739;28;19909;-75
2024/02/24 05:15:08;;;;;;;;;;;14.10;66.10;;;;;;5033764;28;19917;-76
2024/02/24 05:17:34;;;;;;;;;;;14.30;64.90;;;;;;5033644;28;19916;-76
2024/02/24 05:20:00;;;;;;;;;;;14.10;66.00;;;;;;5033638;28;19917;-76
2024/02/24 05:22:27;;;;;;;;;;;14.10;66.20;;;;;;5033588;28;20000;-75
2024/02/24 05:24:52;;;;;;;;;;;14.10;66.10;;;;;;5034400;28;19913;-75
2024/02/24 05:27:19;;;;;;;;;;;14.10;66.00;;;;;;5033605;28;19966;-75
2024/02/24 05:29:45;;;;;;;;;;;14.10;65.90;;;;;;5033771;28;19909;-75
2024/02/24 05:32:14;;;;;;;;;;;14.10;66.20;;;;;;5033528;28;20378;-76
2024/02/24 05:34:39;;;;;;;;;;;14.10;66.30;;;;;;5034004;28;19956;-75
2024/02/24 05:37:05;;;;;;;;;;;14.10;66.40;;;;;;5033458;28;20329;-75
2024/02/24 05:39:31;;;;;;;;;;;14.10;66.00;;;;;;5033270;28;19924;-74
2024/02/24 05:41:57;;;;;;;;;;;14.40;66.20;;;;;;5033293;28;19909;-74
2024/02/24 05:44:23;;;;;;;;;;;14.10;66.40;;;;;;5033195;28;19955;-74
2024/02/24 05:46:49;;;;;;;;;;;14.40;67.20;;;;;;5033481;28;19913;-74
2024/02/24 05:49:15;;;;;;;;;;;14.00;66.40;;;;;;5033476;28;19915;-74
2024/02/24 05:51:44;;;;;;;;;;;14.10;66.70;;;;;;5033367;28;20303;-74
2024/02/24 05:54:10;;;;;;;;;;;14.20;62.40;;;;;;5033645;28;20399;-74
2024/02/24 05:56:36;;;;;;;;;;;14.10;66.90;;;;;;5033024;28;19909;-74
2024/02/24 05:59:01;;;;;;;;;;;14.10;67.10;;;;;;5032967;28;20007;-74
2024/02/24 06:01:27;;;;;;;;;;;14.10;66.70;;;;;;5032956;28;19966;-74
2024/02/24 06:03:54;;;;;;;;;;;14.10;67.10;;;;;;4971348;28;1774626;-74
2024/02/24 06:06:20;;;;;;;;;;;14.10;67.10;;;;;;5016786;28;19913;-74
2024/02/24 06:08:46;;;;;;;;;;;14.10;67.50;;;;;;5034133;28;19963;-74
2024/02/24 06:11:12;;;;;;;;;;;14.20;67.40;;;;;;5034175;28;19982;-74
2024/02/24 06:13:38;;;;;;;;;;;14.10;67.40;;;;;;5034019;28;19932;-74
2024/02/24 06:16:04;;;;;;;;;;;14.20;67.70;;;;;;5034081;28;19915;-74
2024/02/24 06:18:30;;;;;;;;;;;14.20;66.20;;;;;;5033844;28;19932;-74
2024/02/24 06:20:56;;;;;;;;;;;14.20;67.20;;;;;;5033937;28;20359;-74
2024/02/24 06:23:22;;;;;;;;;;;14.20;67.10;;;;;;5034418;28;20417;-74
2024/02/24 06:25:48;;;;;;;;;;;14.20;67.60;;;;;;5033766;28;20256;-74
2024/02/24 06:28:14;;;;;;;;;;;14.20;67.60;;;;;;5033546;28;20272;-74
2024/02/24 06:30:39;;;;;;;;;;;14.20;67.70;;;;;;5033466;28;20287;-74
2024/02/24 06:33:05;;;;;;;;;;;14.30;67.80;;;;;;5032710;28;19959;-74
2024/02/24 06:35:31;;;;;;;;;;;14.20;67.70;;;;;;5033382;28;20003;-74
2024/02/24 06:37:57;;;;;;;;;;;14.20;67.90;;;;;;5033422;28;19916;-75
2024/02/24 06:40:24;;;;;;;;;;;14.20;67.70;;;;;;5033421;28;19921;-74
2024/02/24 06:42:49;;;;;;;;;;;14.10;67.70;;;;;;5033007;28;19909;-74
2024/02/24 06:45:15;;;;;;;;;;;14.20;67.70;;;;;;5036800;28;19909;-75
2024/02/24 06:47:41;;;;;;;;;;;14.20;67.70;;;;;;5033274;28;19921;-75
2024/02/24 06:50:07;;;;;;;;;;;14.30;67.60;;;;;;5033609;28;19940;-74
2024/02/24 06:52:33;;;;;;;;;;;14.30;67.40;;;;;;5033188;28;20275;-75
2024/02/24 06:55:00;;;;;;;;;;;14.30;68.00;;;;;;5032790;28;19935;-76
2024/02/24 06:57:26;;;;;;;;;;;14.20;67.20;;;;;;5033103;28;19909;-74
2024/02/24 06:59:52;;;;;;;;;;;14.20;67.60;;;;;;5032827;28;19917;-75
2024/02/24 07:02:18;;;;;;;;;;;14.30;67.20;;;;;;5032802;28;19956;-74
2024/02/24 07:04:43;;;;;;;;;;;14.20;67.90;;;;;;5032536;28;19921;-72
2024/02/24 07:07:09;;;;;;;;;;;14.40;68.50;;;;;;5033030;28;19913;-74
2024/02/24 07:09:34;;;;;;;;;;;14.20;67.50;;;;;;5032617;28;19915;-75
2024/02/24 07:12:00;;;;;;;;;;;14.20;67.60;;;;;;5032476;28;19963;-75
2024/02/24 07:14:26;;;;;;;;;;;14.20;67.80;;;;;;5032407;28;20407;-74
2024/02/24 07:16:51;;;;;;;;;;;14.20;67.60;;;;;;5032249;28;19909;-75
2024/02/24 07:19:17;;;;;;;;;;;14.20;67.50;;;;;;5032770;28;20327;-75
2024/02/24 07:21:43;;;;;;;;;;;15.50;68.20;;;;;;5032311;28;19913;-75
2024/02/24 07:24:08;;;;;;;;;;;14.20;67.60;;;;;;5032323;28;19944;-75
2024/02/24 07:26:44;;;;;;;;;;;14.20;67.70;;;;;;5032210;28;19933;-75
2024/02/24 07:29:10;;;;;;;;;;;14.30;63.00;;;;;;5032450;28;19996;-74
2024/02/24 07:31:36;;;;;;;;;;;14.30;67.60;;;;;;5032555;28;20328;-74
2024/02/24 07:34:03;;;;;;;;;;;14.20;67.70;;;;;;5032491;28;19913;-76
2024/02/24 07:36:32;;;;;;;;;;;14.20;67.90;;;;;;5032542;28;19916;-75
2024/02/24 07:38:58;;;;;;;;;;;14.20;65.30;;;;;;5032532;28;19920;-74
2024/02/24 07:41:24;;;;;;;;;;;14.30;67.60;;;;;;5032555;28;19916;-74
2024/02/24 07:43:50;;;;;;;;;;;14.20;67.50;;;;;;5032360;28;20283;-74
2024/02/24 07:46:31;;;;;;;;;;;14.30;67.30;;;;;;5036022;28;20043;-74
2024/02/24 07:48:58;;;;;;;;;;;14.20;63.40;;;;;;5035719;28;19913;-75
2024/02/24 07:51:23;;;;;;;;;;;14.20;67.70;;;;;;5035707;28;19999;-75
2024/02/24 07:53:49;;;;;;;;;;;14.20;67.50;;;;;;5035629;28;20356;-74
2024/02/24 07:56:15;;;;;;;;;;;14.20;67.50;;;;;;5035613;28;20354;-76
2024/02/24 07:58:40;;;;;;;;;;;14.20;67.70;;;;;;5035898;28;19915;-74
2024/02/24 08:01:06;;;;;;;;;;;14.30;67.80;;;;;;5036371;28;19916;-80
2024/02/24 08:03:32;;;;;;;;;;;14.30;67.10;;;;;;5036004;28;19925;-76
2024/02/24 08:05:58;;;;;;;;;;;14.20;66.90;;;;;;5036892;28;19913;-75
2024/02/24 08:08:24;;;;;;;;;;;14.30;67.60;;;;;;5036252;28;19915;-77
2024/02/24 08:10:49;;;;;;;;;;;14.50;67.80;;;;;;5035977;28;19909;-72
2024/02/24 08:13:15;;;;;;;;;;;14.20;67.50;;;;;;5036191;28;19963;-74
2024/02/24 08:15:41;;;;;;;;;;;14.30;67.70;;;;;;5036192;28;19932;-74
2024/02/24 08:18:07;;;;;;;;;;;14.20;66.50;;;;;;5036171;28;19909;-75
2024/02/24 08:20:33;;;;;;;;;;;14.30;67.40;;;;;;5036067;28;20287;-72
2024/02/24 08:22:59;;;;;;;;;;;14.30;67.30;;;;;;5035718;28;20410;-74
2024/02/24 08:25:25;;;;;;;;;;;14.20;67.30;;;;;;5035992;28;19963;-74
2024/02/24 08:27:50;;;;;;;;;;;14.20;67.60;;;;;;5035697;28;19978;-73
2024/02/24 08:30:16;;;;;;;;;;;14.40;68.20;;;;;;5035631;28;19910;-73
2024/02/24 08:32:42;;;;;;;;;;;14.30;67.00;;;;;;5036003;28;20084;-74
2024/02/24 08:35:08;;;;;;;;;;;14.30;67.20;;;;;;5036252;28;19932;-73
2024/02/24 08:37:34;;;;;;;;;;;14.30;67.40;;;;;;5035493;28;19916;-73
2024/02/24 08:39:59;;;;;;;;;;;14.30;67.40;;;;;;5035370;28;19928;-73
2024/02/24 08:42:24;;;;;;;;;;;14.30;67.20;;;;;;5035428;28;19909;-73
2024/02/24 08:44:50;;;;;;;;;;;14.50;67.20;;;;;;5035423;28;19927;-73
2024/02/24 08:47:15;;;;;;;;;;;14.30;67.30;;;;;;5035242;28;19979;-73
2024/02/24 08:49:41;;;;;;;;;;;14.30;67.30;;;;;;5035371;28;19909;-73
2024/02/24 08:52:07;;;;;;;;;;;14.30;67.10;;;;;;5035160;28;19912;-73
2024/02/24 08:54:33;;;;;;;;;;;14.20;67.10;;;;;;5035097;28;20039;-72
2024/02/24 08:57:00;;;;;;;;;;;14.30;67.00;;;;;;5034624;28;19920;-73
2024/02/24 08:59:26;;;;;;;;;;;14.40;67.20;;;;;;5035194;28;19917;-73
2024/02/24 09:01:53;;;;;;;;;;;14.20;66.30;;;;;;5034884;28;19917;-72
2024/02/24 09:04:18;;;;;;;;;;;14.30;62.40;;;;;;5035300;28;19983;-73
2024/02/24 09:06:44;;;;;;;;;;;14.20;67.00;;;;;;5035193;28;20344;-73
2024/02/24 09:09:14;;;;;;;;;;;14.20;67.20;;;;;;5034815;28;19917;-73
2024/02/24 09:11:40;;;;;;;;;;;14.30;66.80;;;;;;5035095;28;19909;-73
2024/02/24 09:14:06;;;;;;;;;;;14.20;67.20;;;;;;5035326;28;19941;-73
2024/02/24 09:16:31;;;;;;;;;;;14.20;67.20;;;;;;5034752;28;19949;-73
2024/02/24 09:18:57;;;;;;;;;;;14.20;67.20;;;;;;5034609;28;20425;-73
2024/02/24 09:21:22;;;;;;;;;;;14.30;67.20;;;;;;5034841;28;19913;-73
2024/02/24 09:23:48;;;;;;;;;;;14.30;67.40;;;;;;5034925;28;19916;-73
2024/02/24 09:26:14;;;;;;;;;;;14.30;66.70;;;;;;5034752;28;20359;-71
2024/02/24 09:28:40;;;;;;;;;;;14.20;67.20;;;;;;5034482;28;19910;-72
2024/02/24 09:31:05;;;;;;;;;;;14.30;67.30;;;;;;5034984;28;19909;-73
2024/02/24 09:33:31;;;;;;;;;;;14.30;67.10;;;;;;5034381;28;20004;-73
2024/02/24 09:35:57;;;;;;;;;;;14.30;66.90;;;;;;5034580;28;19992;-73
2024/02/24 09:38:22;;;;;;;;;;;14.30;67.30;;;;;;5034404;28;20437;-73
2024/02/24 09:40:49;;;;;;;;;;;14.20;67.20;;;;;;5034426;28;19979;-73
2024/02/24 09:43:15;;;;;;;;;;;14.30;67.20;;;;;;5034509;28;19972;-73
2024/02/24 09:45:44;;;;;;;;;;;14.30;67.10;;;;;;5034451;28;20438;-73
2024/02/24 09:48:10;;;;;;;;;;;14.20;67.70;;;;;;5034198;28;19909;-74
2024/02/24 09:50:36;;;;;;;;;;;14.30;66.80;;;;;;5034260;28;19996;-70
2024/02/24 09:53:01;;;;;;;;;;;14.30;67.20;;;;;;5034802;28;20371;-72
2024/02/24 09:55:27;;;;;;;;;;;14.30;66.70;;;;;;5034299;28;19995;-75
2024/02/24 09:57:56;;;;;;;;;;;14.40;66.80;;;;;;5033842;28;19913;-72
2024/02/24 10:00:22;;;;;;;;;;;14.20;62.00;;;;;;5034388;28;19917;-73
2024/02/24 10:02:48;;;;;;;;;;;14.30;66.00;;;;;;5033754;28;20011;-73
2024/02/24 10:05:15;;;;;;;;;;;14.30;66.80;;;;;;5033897;28;20055;-74
2024/02/24 10:07:40;;;;;;;;;;;14.20;66.70;;;;;;5032847;28;20363;-74
2024/02/24 10:10:06;;;;;;;;;;;14.20;66.60;;;;;;5033747;28;19909;-74
2024/02/24 10:12:32;;;;;;;;;;;14.20;65.40;;;;;;5033933;28;20357;-80
2024/02/24 10:14:57;;;;;;;;;;;14.40;66.80;;;;;;5033704;28;19956;-73
2024/02/24 10:17:23;;;;;;;;;;;14.30;66.70;;;;;;5033599;28;19915;-78
2024/02/24 10:19:52;;;;;;;;;;;14.30;66.60;;;;;;5033415;28;20283;-75
2024/02/24 10:22:18;;;;;;;;;;;14.30;62.00;;;;;;5033437;28;19948;-75
2024/02/24 10:24:45;;;;;;;;;;;14.20;66.40;;;;;;5033379;28;19916;-74
2024/02/24 10:27:11;;;;;;;;;;;14.20;66.40;;;;;;5033661;28;19928;-74
2024/02/24 10:29:37;;;;;;;;;;;14.20;66.20;;;;;;5033769;28;19955;-74
2024/02/24 10:32:04;;;;;;;;;;;14.20;67.20;;;;;;5033536;28;19921;-74
2024/02/24 10:34:30;;;;;;;;;;;14.20;65.60;;;;;;5033238;28;19916;-74
2024/02/24 10:36:58;;;;;;;;;;;14.10;67.20;;;;;;5033257;28;19909;-74
2024/02/24 10:39:25;;;;;;;;;;;14.20;66.30;;;;;;5033074;28;20387;-74
2024/02/24 10:41:51;;;;;;;;;;;14.20;66.10;;;;;;5033187;28;20368;-74
2024/02/24 10:44:17;;;;;;;;;;;14.20;66.30;;;;;;5033432;28;19910;-74
2024/02/24 10:46:43;;;;;;;;;;;14.20;66.20;;;;;;5033271;28;19916;-74
2024/02/24 10:49:09;;;;;;;;;;;14.20;66.00;;;;;;5033337;28;19909;-74
2024/02/24 10:51:35;;;;;;;;;;;14.30;65.90;;;;;;5032890;28;19909;-74
2024/02/24 10:54:10;;;;;;;;;;;14.10;65.80;;;;;;5033175;28;19909;-74
2024/02/24 10:56:36;;;;;;;;;;;14.20;61.40;;;;;;5033364;28;19924;-74
2024/02/24 10:59:09;;;;;;;;;;;14.20;65.90;;;;;;5033057;28;19917;-74
2024/02/24 11:01:42;;;;;;;;;;;14.10;65.40;;;;;;5032982;28;19909;-74
2024/02/24 11:04:10;;;;;;;;;;;14.10;61.10;;;;;;5032541;28;20363;-74
2024/02/24 11:06:45;;;;;;;;;;;14.20;66.00;;;;;;5032936;28;19909;-74
2024/02/24 11:09:33;;;;;;;;;;;14.10;61.20;;;;;;5033057;28;19909;-74
2024/02/24 11:12:03;;;;;;;;;;;14.10;61.50;;;;;;5032956;28;19940;-74
2024/02/24 11:14:29;;;;;;;;;;;14.10;61.40;;;;;;5032566;28;19921;-74
2024/02/24 11:16:56;;;;;;;;;;;13.80;65.80;;;;;;5032481;28;20298;-73
2024/02/24 11:19:41;;;;;;;;;;;14.20;66.00;;;;;;5032354;28;19921;-75
2024/02/24 11:22:11;;;;;;;;;;;14.00;61.20;;;;;;5032457;28;19909;-74
2024/02/24 11:24:36;;;;;;;;;;;14.10;65.90;;;;;;5032302;28;19983;-74
2024/02/24 11:27:03;;;;;;;;;;;14.10;65.80;;;;;;5032850;28;19952;-75
2024/02/24 11:29:29;;;;;;;;;;;14.10;65.40;;;;;;5032476;28;19909;-74
2024/02/24 11:32:05;;;;;;;;;;;14.10;65.80;;;;;;5032383;28;19996;-75
2024/02/24 11:34:35;;;;;;;;;;;14.10;61.10;;;;;;5032327;28;19909;-76
2024/02/24 11:37:00;;;;;;;;;;;14.00;61.10;;;;;;5032579;28;19913;-75
2024/02/24 11:39:27;;;;;;;;;;;14.00;65.50;;;;;;5032264;28;19964;-74
2024/02/24 11:41:55;;;;;;;;;;;14.10;65.70;;;;;;5032531;28;20051;-74
2024/02/24 11:44:21;;;;;;;;;;;14.00;65.60;;;;;;5032609;28;19909;-75
2024/02/24 11:46:47;;;;;;;;;;;14.20;65.80;;;;;;5032478;28;20272;-74
2024/02/24 11:49:16;;;;;;;;;;;14.20;65.80;;;;;;5032421;28;19909;-75
2024/02/24 11:51:44;;;;;;;;;;;14.00;65.90;;;;;;5032164;28;19937;-74
2024/02/24 11:54:10;;;;;;;;;;;14.30;61.30;;;;;;5032569;28;19967;-72
2024/02/24 11:56:37;;;;;;;;;;;14.10;65.40;;;;;;5032191;28;19937;-74
2024/02/24 11:59:02;;;;;;;;;;;14.00;65.20;;;;;;5031750;28;19964;-72
2024/02/24 12:01:29;;;;;;;;;;;14.10;65.40;;;;;;5031878;28;19947;-72
2024/02/24 12:03:57;;;;;;;;;;;14.00;66.10;;;;;;5031780;28;19936;-73
2024/02/24 12:06:27;;;;;;;;;;;14.00;65.10;;;;;;5032183;28;19913;-73
2024/02/24 12:08:53;;;;;;;;;;;14.00;65.30;;;;;;5032010;28;19920;-73
2024/02/24 12:11:20;;;;;;;;;;;14.00;65.10;;;;;;5031889;28;19916;-73
2024/02/24 12:13:46;;;;;;;;;;;14.00;65.20;;;;;;5032167;28;19916;-73
2024/02/24 12:16:12;;;;;;;;;;;14.00;65.00;;;;;;5031786;28;19909;-73
2024/02/24 12:18:43;;;;;;;;;;;14.00;65.00;;;;;;5031954;28;19931;-73
2024/02/24 12:21:12;;;;;;;;;;;14.10;60.40;;;;;;5031851;28;19924;-73
2024/02/24 12:23:37;;;;;;;;;;;14.00;60.70;;;;;;5032315;28;19909;-73
2024/02/24 12:26:12;;;;;;;;;;;12.10;63.80;;;;;;5031732;28;19909;-73
2024/02/24 12:28:45;;;;;;;;;;;14.30;60.70;;;;;;5032061;28;20330;-72
2024/02/24 12:31:12;;;;;;;;;;;14.20;63.60;;;;;;5033049;28;20494;-73
2024/02/24 12:33:41;;;;;;;;;;;14.10;65.30;;;;;;5035852;28;19910;-72
2024/02/24 12:36:09;;;;;;;;;;;14.00;64.30;;;;;;5035708;28;19909;-73
2024/02/24 12:38:34;;;;;;;;;;;14.00;65.10;;;;;;5035614;28;19916;-74
2024/02/24 12:41:05;;;;;;;;;;;14.20;65.50;;;;;;5035168;28;19917;-74
2024/02/24 12:43:31;;;;;;;;;;;14.00;65.40;;;;;;5035286;28;19948;-75
2024/02/24 12:45:56;;;;;;;;;;;14.00;65.40;;;;;;5035692;28;20308;-73
2024/02/24 12:48:22;;;;;;;;;;;14.00;65.30;;;;;;5035179;28;19917;-72
2024/02/24 12:50:49;;;;;;;;;;;14.00;65.50;;;;;;5035561;28;20287;-73
2024/02/24 12:53:15;;;;;;;;;;;14.30;65.60;;;;;;5035423;28;20027;-71
2024/02/24 12:55:41;;;;;;;;;;;14.00;65.40;;;;;;5035104;28;19909;-73
2024/02/24 12:58:06;;;;;;;;;;;14.20;65.80;;;;;;5034987;28;20008;-76
2024/02/24 13:00:32;;;;;;;;;;;13.90;65.00;;;;;;5034799;28;19921;-74
2024/02/24 13:02:59;;;;;;;;;;;14.00;65.20;;;;;;5034776;28;19913;-73
2024/02/24 13:05:24;;;;;;;;;;;14.00;65.40;;;;;;5034893;28;20015;-74
2024/02/24 13:07:50;;;;;;;;;;;14.00;65.80;;;;;;5034866;28;19960;-72
2024/02/24 13:10:15;;;;;;;;;;;14.00;65.80;;;;;;5034848;28;19916;-72
2024/02/24 13:12:41;;;;;;;;;;;14.00;65.60;;;;;;5035023;28;20375;-72
2024/02/24 13:15:07;;;;;;;;;;;14.00;65.80;;;;;;5034940;28;19945;-72
2024/02/24 13:17:33;;;;;;;;;;;14.00;64.10;;;;;;5034546;28;19990;-72
2024/02/24 13:20:00;;;;;;;;;;;14.00;65.50;;;;;;5034620;28;19917;-73
2024/02/24 13:22:26;;;;;;;;;;;14.00;65.50;;;;;;5034950;28;19909;-71
2024/02/24 13:24:52;;;;;;;;;;;13.90;65.80;;;;;;5034498;28;19916;-72
2024/02/24 13:27:17;;;;;;;;;;;14.00;65.90;;;;;;5034696;28;19959;-73
2024/02/24 13:29:43;;;;;;;;;;;14.00;65.70;;;;;;5034436;28;19913;-72
2024/02/24 13:32:08;;;;;;;;;;;13.80;65.50;;;;;;5034349;28;19909;-71
2024/02/24 13:34:34;;;;;;;;;;;14.00;65.50;;;;;;5034253;28;19956;-71
2024/02/24 13:36:59;;;;;;;;;;;14.00;65.00;;;;;;5034306;28;20005;-72
2024/02/24 13:39:25;;;;;;;;;;;14.10;64.80;;;;;;5034054;28;20245;-71
2024/02/24 13:41:51;;;;;;;;;;;14.00;65.60;;;;;;5034042;28;19909;-72
2024/02/24 13:44:16;;;;;;;;;;;14.10;65.20;;;;;;5034142;28;19909;-71
2024/02/24 13:46:42;;;;;;;;;;;14.20;65.20;;;;;;5034135;28;19913;-71
2024/02/24 13:49:11;;;;;;;;;;;14.50;65.30;;;;;;5034080;28;19961;-70
2024/02/24 13:51:37;;;;;;;;;;;14.20;61.20;;;;;;5034201;28;20011;-71
2024/02/24 13:54:03;;;;;;;;;;;14.20;65.00;;;;;;5034231;28;20011;-72
2024/02/24 13:56:29;;;;;;;;;;;14.20;65.10;;;;;;5034171;28;20348;-73
2024/02/24 13:58:55;;;;;;;;;;;14.30;65.20;;;;;;5034189;28;19947;-72
2024/02/24 14:01:21;;;;;;;;;;;14.30;64.50;;;;;;5033830;28;20388;-71
2024/02/24 14:03:46;;;;;;;;;;;14.20;65.10;;;;;;5033490;28;19973;-72
2024/02/24 14:06:12;;;;;;;;;;;14.50;64.80;;;;;;5033807;28;20011;-71
2024/02/24 14:08:40;;;;;;;;;;;14.60;63.90;;;;;;5033642;28;19909;-71
2024/02/24 14:11:06;;;;;;;;;;;14.80;64.10;;;;;;5033730;28;20287;-71